หน้าหลัก
METAR-TAF:

METAR-TAF

ท่าอากาศยาน :

ท่าอากาศยานนานาชาติโหน่ยบ่าย

ฮานอย, เวียดนาม

ละติจูด: 21-01N, ลองจิจูด: 105-48E, ความสูง: 6 ม.

การสังเกตสภาพอากาศปัจจุบัน

รายงานได้ทำขึ้นเมื่อ 33 นาทีที่แล้ว ณ เวลา 04:30 UTC
ลม 4 นอตจากใต้, แปรผันระหว่างตะวันออก/ตะวันออกเฉียงใต้ และตะวันตก/ตะวันตกเฉียงใต้
อุณหภูมิ 32°C
ความชื้น 67%
ความกดอากาศ 1009 hPa
ทัศนวิสัย: 6000 ม.
มีเมฆเป็นส่วนมากเว้นเป็นระยะที่ความสูง 2600 ฟุต

METAR: VVNB 240430Z 19004KT 110V240 6000 BKN026 32/25 Q1009 NOSIG

เวลา: 12:03 (05:03 UTC)

การพยากรณ์

รายงานได้ทำขึ้นเมื่อ 6 ชั่วโมงและ 3 นาทีที่แล้ว ณ เวลา 23:00 UTC
การพยากรณ์มีผลตั้งแต่วันที่ 24 ณ เวลา 00 UTC จนถึงวันที่ 24 ณ เวลา 24 UTC
ลม 5 นอตจากตะวันออก/ตะวันออกเฉียงเหนือ
ทัศนวิสัย: 6000 ม.
มีเมฆกระจายเป็นบางส่วนที่ความสูง 2500 ฟุต
ชั่วคราว
ตั้งแต่วันที่ 24 ณ เวลา 07 UTC จนถึงวันที่ 24 ณ เวลา 13 UTC
ทัศนวิสัย: 4000 ม.
มีเมฆกระจายเป็นบางส่วนที่ความสูง 1000 ฟุต
มีเมฆน้อยที่ความสูง 3000 ฟุต, คิวมูโลนิมบัส.
พายุฝนฟ้าคะนอง, ฝน,

TAF: VVNB 232300Z 2400/2424 07005KT 6000 SCT025 TEMPO 2407/2413 4000 TSRA SCT010 FEW030CB

สังเกตการณ์สภาพอากาศและพยากรณ์อากาศของสนามบินมากกว่า 4000 แห่ง (รายงาน METAR และ TAF).

สถานีที่ดูได้จะแสดงไว้ด้วยจุดสีเหลืองและสีแดงบนแผนที่.

เลื่อนเมาส์ไปเหนือจุดเพื่อดูชื่อสถานี.

แล้วคลิกเพื่อดูสังเกตการณ์และการพยากรณ์สภาพอากาศ.

ในการเปลี่ยนแผนที่: คลิกที่ปุ่มสีเขียวที่มีกากบาทสีดำเพื่อซูมเข้า; ที่ปุ่มสีเขียวที่มีขีดเพื่อซูมออก; หรือที่ลูกศรสีเขียวเพื่อไปยังแผนที่ที่อยู่ติดกัน.


METAR-TAF: